Terminal Aerodrome Forecast
Issued by NWS

Home | Current Version | Previous Version | Text Only | Print | Product List | Glossary On
Versions: 1 2 3 4 5 6 7 8 9 10 11 12 13 14 15 16
000
FTUS43 KJKL 250520
TAFSME
TAF
KSME 250520Z 2506/2606 00000KT P6SM VCSH OVC040
     FM250900 13003KT 6SM -SHRA BR OVC025
     FM251100 15004KT 3SM SHRA BR OVC009
     FM251600 21006KT 6SM BR VCTS OVC010CB
     FM260000 VRB05KT 5SM -SHRA BR VCTS BKN015CB=

USA.gov is the U.S. government's official web portal to all federal, state and local government web resources and services.